Flag for Vietnam

Past Weather in Da Nang, Vietnam — Yesterday and Last 2 Weeks

Currently: 66 °F. Passing clouds. (Weather station: Da Nang Airport, Vietnam). See more current weather

Past Weather in Da Nang — Graph

°F

Da Nang Temperature Yesterday

Maximum temperature yesterday: 82 °F (at 11:00 am)
Minimum temperature yesterday: 61 °F (at 3:00 am)
Average temperature yesterday: 70 °F

High & Low Weather Summary for the Past Weeks

 TemperatureHumidityPressure
High82 °F (Jan 16, 11:00 am)100% (Jan 6, 9:00 am)30.27 "Hg (Jan 6, 9:00 am)
Low55 °F (Jan 13, 11:00 pm)51% (Jan 15, 12:30 pm)29.89 "Hg (Jan 15, 2:00 pm)
Average66 °F80%30.06 "Hg
* Reported Jan 2 12:00 am — Jan 17 12:30 am, Da Nang. Weather by CustomWeather, © 2021

Note: Actual official high and low records may vary slightly from our data, if they occured in-between our weather recording intervals... More about our weather records

Da Nang Weather History for the Previous 24 Hours

Scroll right to see more
 ConditionsComfort  
Time TempWeatherWind HumidityBarometerVisibility
12:30 am
Sun, Jan 17
68 °FPassing clouds.No wind83%30.01 "Hg4 mi
12:00 am68 °FPassing clouds.2 mph83%30.01 "Hg4 mi
11:30 pm
Sat, Jan 16
68 °FPassing clouds.No wind88%30.01 "Hg4 mi
11:00 pm68 °FPassing clouds.1 mph88%30.01 "Hg4 mi
10:30 pm68 °FPassing clouds.No wind88%30.01 "Hg4 mi
10:00 pm68 °FPassing clouds.1 mph88%30.01 "Hg4 mi
9:30 pm68 °FPassing clouds.2 mph88%30.01 "Hg4 mi
9:00 pm70 °FPassing clouds.2 mph88%30.01 "Hg4 mi
8:30 pm68 °FPassing clouds.2 mph94%29.98 "Hg4 mi
8:00 pm70 °FPassing clouds.3 mph88%29.98 "Hg4 mi
7:30 pm70 °FPassing clouds.6 mph88%29.98 "Hg4 mi
7:00 pm70 °FPassing clouds.8 mph88%29.95 "Hg4 mi
6:30 pm70 °FPassing clouds.8 mph88%29.95 "Hg4 mi
6:00 pm70 °FPassing clouds.8 mph88%29.92 "Hg4 mi
5:30 pm70 °FPassing clouds.10 mph88%29.92 "Hg4 mi
5:00 pm72 °FPassing clouds.12 mph83%29.92 "Hg5 mi
4:30 pm73 °FPassing clouds.10 mph74%29.92 "Hg5 mi
4:00 pm73 °FPassing clouds.9 mph74%29.89 "Hg5 mi
3:30 pm75 °FPassing clouds.5 mph69%29.89 "Hg5 mi
3:00 pm77 °FPassing clouds.7 mph61%29.89 "Hg5 mi
2:30 pm77 °FPassing clouds.9 mph61%29.89 "Hg5 mi
2:00 pm79 °FPassing clouds.8 mph58%29.89 "Hg5 mi
1:30 pm79 °FPassing clouds.7 mph58%29.89 "Hg5 mi
1:00 pm79 °FPassing clouds.6 mph58%29.92 "Hg5 mi
12:30 pm77 °FPassing clouds.5 mph61%29.92 "Hg5 mi
12:00 pm79 °FPassing clouds.2 mph58%29.95 "Hg5 mi
11:30 am81 °FPassing clouds.1 mph54%29.98 "Hg5 mi
11:00 am82 °FPassing clouds.2 mph51%29.98 "Hg5 mi
10:30 am77 °FPassing clouds.5 mph57%30.01 "Hg5 mi
10:00 am79 °FPassing clouds.3 mph58%30.01 "Hg5 mi
9:30 am77 °FPassing clouds.2 mph61%30.01 "Hg4 mi
9:00 am75 °FPassing clouds.1 mph65%30.01 "Hg4 mi
8:30 am73 °FPassing clouds.No wind69%30.04 "Hg4 mi
8:00 am70 °FFog.No wind78%30.01 "Hg2 mi
7:30 am64 °FFog.No wind88%30.01 "Hg2 mi
6:30 am61 °FFog.No wind94%29.98 "Hg2 mi
6:00 am61 °FFog.1 mph94%29.98 "Hg2 mi
5:30 am61 °FFog.1 mph94%29.95 "Hg3 mi
5:00 am61 °FPassing clouds.2 mph94%29.95 "Hg4 mi
4:30 am61 °FPassing clouds.No wind94%29.95 "Hg4 mi
4:00 am61 °FPassing clouds.No wind94%29.95 "Hg4 mi
3:30 am61 °FPassing clouds.1 mph100%29.92 "Hg4 mi
3:00 am61 °FPassing clouds.1 mph94%29.92 "Hg4 mi
2:00 am63 °FPassing clouds.No wind94%29.95 "Hg4 mi
Weather by CustomWeather, © 2021

See weather overview